sensor_id;sensor_type;location;lat;lon;timestamp;pressure;altitude;pressure_sealevel;temperature;humidity
54554;BME280;40450;55.848;-3.572;2023-04-21T00:02:18;100503.83;;;12.02;63.12
54554;BME280;40450;55.848;-3.572;2023-04-21T00:04:48;100501.37;;;12.66;64.16
54554;BME280;40450;55.848;-3.572;2023-04-21T00:07:19;100498.24;;;12.99;63.42
54554;BME280;40450;55.848;-3.572;2023-04-21T00:09:49;100494.61;;;12.85;62.35
54554;BME280;40450;55.848;-3.572;2023-04-21T00:12:20;100497.96;;;12.86;62.20
54554;BME280;40450;55.848;-3.572;2023-04-21T00:14:50;100491.62;;;13.07;62.44
54554;BME280;40450;55.848;-3.572;2023-04-21T00:17:20;100489.57;;;13.27;62.23
54554;BME280;40450;55.848;-3.572;2023-04-21T00:19:52;100487.16;;;12.81;62.47
54554;BME280;40450;55.848;-3.572;2023-04-21T00:22:20;100485.07;;;12.44;63.54
54554;BME280;40450;55.848;-3.572;2023-04-21T00:24:51;100482.12;;;11.90;65.99
54554;BME280;40450;55.848;-3.572;2023-04-21T00:27:21;100481.23;;;10.49;70.83
54554;BME280;40450;55.848;-3.572;2023-04-21T00:29:52;100485.71;;;8.77;76.92
54554;BME280;40450;55.848;-3.572;2023-04-21T00:32:22;100477.62;;;10.10;73.41
54554;BME280;40450;55.848;-3.572;2023-04-21T00:34:53;100475.54;;;10.00;73.72
54554;BME280;40450;55.848;-3.572;2023-04-21T00:37:23;100475.70;;;9.38;76.03
54554;BME280;40450;55.848;-3.572;2023-04-21T00:39:58;100473.94;;;9.84;75.21
54554;BME280;40450;55.848;-3.572;2023-04-21T00:42:24;100480.49;;;8.20;79.77
54554;BME280;40450;55.848;-3.572;2023-04-21T00:44:55;100476.64;;;10.15;74.48
54554;BME280;40450;55.848;-3.572;2023-04-21T00:47:25;100476.40;;;10.22;73.99
54554;BME280;40450;55.848;-3.572;2023-04-21T00:49:56;100473.95;;;10.02;74.73
54554;BME280;40450;55.848;-3.572;2023-04-21T00:52:26;100475.08;;;10.27;74.69
54554;BME280;40450;55.848;-3.572;2023-04-21T00:54:56;100477.89;;;10.28;74.19
54554;BME280;40450;55.848;-3.572;2023-04-21T00:57:27;100487.79;;;6.27;86.65
54554;BME280;40450;55.848;-3.572;2023-04-21T00:59:57;100477.83;;;9.80;77.16
54554;BME280;40450;55.848;-3.572;2023-04-21T01:02:28;100478.06;;;8.20;81.16
54554;BME280;40450;55.848;-3.572;2023-04-21T01:04:57;100477.52;;;8.45;80.91
54554;BME280;40450;55.848;-3.572;2023-04-21T01:10:00;100470.77;;;6.11;88.85
54554;BME280;40450;55.848;-3.572;2023-04-21T01:12:42;100471.15;;;5.98;89.24
54554;BME280;40450;55.848;-3.572;2023-04-21T01:14:59;100470.98;;;5.52;91.21
54554;BME280;40450;55.848;-3.572;2023-04-21T01:17:30;100470.64;;;4.79;93.75
54554;BME280;40450;55.848;-3.572;2023-04-21T01:20:01;100467.59;;;5.97;90.10
54554;BME280;40450;55.848;-3.572;2023-04-21T01:22:32;100465.10;;;6.26;90.82
54554;BME280;40450;55.848;-3.572;2023-04-21T01:25:07;100450.57;;;7.20;88.14
54554;BME280;40450;55.848;-3.572;2023-04-21T01:27:31;100462.55;;;3.72;96.43
54554;BME280;40450;55.848;-3.572;2023-04-21T01:30:09;100459.46;;;2.98;98.25
54554;BME280;40450;55.848;-3.572;2023-04-21T01:35:02;100460.32;;;5.01;93.74
54554;BME280;40450;55.848;-3.572;2023-04-21T01:37:33;100465.36;;;2.90;98.70
54554;BME280;40450;55.848;-3.572;2023-04-21T01:40:05;100462.44;;;2.49;100.00
54554;BME280;40450;55.848;-3.572;2023-04-21T01:42:34;100454.22;;;5.19;94.38
54554;BME280;40450;55.848;-3.572;2023-04-21T01:45:03;100458.73;;;5.32;94.25
54554;BME280;40450;55.848;-3.572;2023-04-21T01:47:34;100462.30;;;2.53;99.36
54554;BME280;40450;55.848;-3.572;2023-04-21T01:50:05;100455.72;;;4.60;95.82
54554;BME280;40450;55.848;-3.572;2023-04-21T01:52:34;100455.53;;;3.17;98.75
54554;BME280;40450;55.848;-3.572;2023-04-21T01:55:06;100451.15;;;3.40;98.15
54554;BME280;40450;55.848;-3.572;2023-04-21T01:57:35;100452.21;;;3.25;98.10
54554;BME280;40450;55.848;-3.572;2023-04-21T02:00:06;100450.52;;;6.34;91.50
54554;BME280;40450;55.848;-3.572;2023-04-21T02:02:43;100446.33;;;5.22;93.12
54554;BME280;40450;55.848;-3.572;2023-04-21T02:05:06;100437.28;;;4.87;95.24
54554;BME280;40450;55.848;-3.572;2023-04-21T02:07:36;100444.06;;;2.68;99.42
54554;BME280;40450;55.848;-3.572;2023-04-21T02:10:08;100443.00;;;3.21;98.98
54554;BME280;40450;55.848;-3.572;2023-04-21T02:12:39;100444.44;;;4.23;96.20
54554;BME280;40450;55.848;-3.572;2023-04-21T02:15:10;100441.51;;;5.41;93.74
54554;BME280;40450;55.848;-3.572;2023-04-21T02:17:38;100434.32;;;5.12;95.43
54554;BME280;40450;55.848;-3.572;2023-04-21T02:20:09;100430.82;;;4.19;95.40
54554;BME280;40450;55.848;-3.572;2023-04-21T02:22:38;100433.08;;;4.28;96.05
54554;BME280;40450;55.848;-3.572;2023-04-21T02:25:08;100430.07;;;2.60;99.38
54554;BME280;40450;55.848;-3.572;2023-04-21T02:27:39;100426.71;;;3.44;97.41
54554;BME280;40450;55.848;-3.572;2023-04-21T02:30:09;100422.48;;;3.40;96.46
54554;BME280;40450;55.848;-3.572;2023-04-21T02:32:39;100418.82;;;2.84;98.32
54554;BME280;40450;55.848;-3.572;2023-04-21T02:35:09;100420.96;;;4.14;97.16
54554;BME280;40450;55.848;-3.572;2023-04-21T02:40:11;100423.88;;;1.73;99.96
54554;BME280;40450;55.848;-3.572;2023-04-21T02:42:40;100418.82;;;3.02;98.66
54554;BME280;40450;55.848;-3.572;2023-04-21T02:45:11;100416.24;;;2.54;99.84
54554;BME280;40450;55.848;-3.572;2023-04-21T02:47:43;100413.09;;;2.32;99.46
54554;BME280;40450;55.848;-3.572;2023-04-21T02:50:17;100409.19;;;3.29;97.21
54554;BME280;40450;55.848;-3.572;2023-04-21T02:52:42;100410.78;;;2.53;98.06
54554;BME280;40450;55.848;-3.572;2023-04-21T02:55:12;100410.75;;;4.00;96.46
54554;BME280;40450;55.848;-3.572;2023-04-21T02:57:44;100407.35;;;4.98;94.54
54554;BME280;40450;55.848;-3.572;2023-04-21T03:00:14;100413.73;;;6.16;90.90
54554;BME280;40450;55.848;-3.572;2023-04-21T03:02:43;100405.64;;;6.76;90.58
54554;BME280;40450;55.848;-3.572;2023-04-21T03:05:15;100405.69;;;5.83;91.77
54554;BME280;40450;55.848;-3.572;2023-04-21T03:07:44;100400.53;;;7.04;86.33
54554;BME280;40450;55.848;-3.572;2023-04-21T03:10:14;100406.60;;;5.46;91.06
54554;BME280;40450;55.848;-3.572;2023-04-21T03:12:45;100405.53;;;6.04;88.31
54554;BME280;40450;55.848;-3.572;2023-04-21T03:15:15;100397.88;;;8.25;84.30
54554;BME280;40450;55.848;-3.572;2023-04-21T03:17:45;100402.39;;;5.18;92.04
54554;BME280;40450;55.848;-3.572;2023-04-21T03:20:16;100393.71;;;7.16;86.43
54554;BME280;40450;55.848;-3.572;2023-04-21T03:22:46;100392.32;;;7.87;85.77
54554;BME280;40450;55.848;-3.572;2023-04-21T03:25:17;100392.24;;;6.90;86.84
54554;BME280;40450;55.848;-3.572;2023-04-21T03:27:48;100387.95;;;8.81;83.50
54554;BME280;40450;55.848;-3.572;2023-04-21T03:30:17;100385.73;;;10.20;77.45
54554;BME280;40450;55.848;-3.572;2023-04-21T03:32:48;100382.82;;;8.34;82.00
54554;BME280;40450;55.848;-3.572;2023-04-21T03:35:18;100378.33;;;8.75;80.41
54554;BME280;40450;55.848;-3.572;2023-04-21T03:37:49;100381.00;;;6.91;84.57
54554;BME280;40450;55.848;-3.572;2023-04-21T03:40:19;100376.32;;;7.65;82.69
54554;BME280;40450;55.848;-3.572;2023-04-21T03:42:49;100378.17;;;4.01;91.34
54554;BME280;40450;55.848;-3.572;2023-04-21T03:45:19;100375.87;;;6.23;87.97
54554;BME280;40450;55.848;-3.572;2023-04-21T03:47:53;100371.61;;;4.76;89.67
54554;BME280;40450;55.848;-3.572;2023-04-21T03:50:20;100372.35;;;1.68;97.56
54554;BME280;40450;55.848;-3.572;2023-04-21T03:52:50;100371.34;;;4.98;91.41
54554;BME280;40450;55.848;-3.572;2023-04-21T03:55:21;100365.77;;;7.61;84.40
54554;BME280;40450;55.848;-3.572;2023-04-21T03:57:51;100372.43;;;5.50;87.46
54554;BME280;40450;55.848;-3.572;2023-04-21T04:00:21;100361.83;;;6.71;86.93
54554;BME280;40450;55.848;-3.572;2023-04-21T04:02:51;100365.10;;;5.31;89.62
54554;BME280;40450;55.848;-3.572;2023-04-21T04:05:22;100352.35;;;6.37;86.74
54554;BME280;40450;55.848;-3.572;2023-04-21T04:07:53;100360.19;;;5.30;88.91
54554;BME280;40450;55.848;-3.572;2023-04-21T04:10:23;100351.07;;;7.74;84.00
54554;BME280;40450;55.848;-3.572;2023-04-21T04:12:53;100360.90;;;5.31;87.27
54554;BME280;40450;55.848;-3.572;2023-04-21T04:15:24;100359.10;;;3.40;92.32
54554;BME280;40450;55.848;-3.572;2023-04-21T04:17:54;100359.78;;;3.76;92.92
54554;BME280;40450;55.848;-3.572;2023-04-21T04:20:25;100356.87;;;4.03;92.72
54554;BME280;40450;55.848;-3.572;2023-04-21T04:22:55;100357.90;;;5.16;89.06
54554;BME280;40450;55.848;-3.572;2023-04-21T04:25:25;100348.33;;;6.76;87.25
54554;BME280;40450;55.848;-3.572;2023-04-21T04:27:56;100348.66;;;4.41;91.59
54554;BME280;40450;55.848;-3.572;2023-04-21T04:30:26;100345.68;;;5.92;88.63
54554;BME280;40450;55.848;-3.572;2023-04-21T04:32:57;100345.10;;;5.50;88.59
54554;BME280;40450;55.848;-3.572;2023-04-21T04:35:29;100343.47;;;5.87;88.74
54554;BME280;40450;55.848;-3.572;2023-04-21T04:37:59;100342.16;;;5.69;87.26
54554;BME280;40450;55.848;-3.572;2023-04-21T04:40:28;100336.89;;;7.23;85.68
54554;BME280;40450;55.848;-3.572;2023-04-21T04:42:58;100337.91;;;6.93;83.49
54554;BME280;40450;55.848;-3.572;2023-04-21T04:45:29;100335.35;;;6.40;85.23
54554;BME280;40450;55.848;-3.572;2023-04-21T04:47:59;100336.97;;;5.64;85.49
54554;BME280;40450;55.848;-3.572;2023-04-21T04:50:29;100338.40;;;4.60;88.90
54554;BME280;40450;55.848;-3.572;2023-04-21T04:53:00;100336.58;;;4.84;88.43
54554;BME280;40450;55.848;-3.572;2023-04-21T04:55:30;100327.92;;;6.51;86.90
54554;BME280;40450;55.848;-3.572;2023-04-21T04:58:00;100325.41;;;8.03;84.55
54554;BME280;40450;55.848;-3.572;2023-04-21T05:00:31;100324.77;;;9.19;80.06
54554;BME280;40450;55.848;-3.572;2023-04-21T05:03:02;100326.30;;;10.05;80.21
54554;BME280;40450;55.848;-3.572;2023-04-21T05:05:32;100323.58;;;10.61;74.23
54554;BME280;40450;55.848;-3.572;2023-04-21T05:08:03;100323.07;;;10.84;76.16
54554;BME280;40450;55.848;-3.572;2023-04-21T05:10:33;100321.66;;;11.01;74.90
54554;BME280;40450;55.848;-3.572;2023-04-21T05:13:04;100321.15;;;11.27;73.40
54554;BME280;40450;55.848;-3.572;2023-04-21T05:15:35;100323.77;;;10.26;73.71
54554;BME280;40450;55.848;-3.572;2023-04-21T05:18:05;100319.19;;;10.34;74.56
54554;BME280;40450;55.848;-3.572;2023-04-21T05:20:35;100318.31;;;10.71;72.51
54554;BME280;40450;55.848;-3.572;2023-04-21T05:23:05;100322.24;;;9.47;73.26
54554;BME280;40450;55.848;-3.572;2023-04-21T05:25:36;100321.64;;;8.89;74.06
54554;BME280;40450;55.848;-3.572;2023-04-21T05:28:06;100319.66;;;10.39;72.09
54554;BME280;40450;55.848;-3.572;2023-04-21T05:30:36;100318.81;;;11.81;70.68
54554;BME280;40450;55.848;-3.572;2023-04-21T05:33:07;100318.67;;;11.60;69.98
54554;BME280;40450;55.848;-3.572;2023-04-21T05:35:38;100321.93;;;12.03;70.52
54554;BME280;40450;55.848;-3.572;2023-04-21T05:38:07;100319.71;;;12.55;64.69
54554;BME280;40450;55.848;-3.572;2023-04-21T05:40:38;100318.91;;;11.51;68.23
54554;BME280;40450;55.848;-3.572;2023-04-21T05:43:08;100317.33;;;11.76;65.94
54554;BME280;40450;55.848;-3.572;2023-04-21T05:45:39;100317.35;;;11.64;67.80
54554;BME280;40450;55.848;-3.572;2023-04-21T05:48:09;100317.12;;;11.08;69.64
54554;BME280;40450;55.848;-3.572;2023-04-21T05:50:39;100318.43;;;8.06;74.85
54554;BME280;40450;55.848;-3.572;2023-04-21T05:53:10;100323.10;;;7.80;75.68
54554;BME280;40450;55.848;-3.572;2023-04-21T05:55:40;100317.16;;;10.03;70.91
54554;BME280;40450;55.848;-3.572;2023-04-21T05:58:10;100317.99;;;10.03;71.02
54554;BME280;40450;55.848;-3.572;2023-04-21T06:00:41;100320.64;;;9.82;71.87
54554;BME280;40450;55.848;-3.572;2023-04-21T06:03:11;100317.95;;;9.11;72.34
54554;BME280;40450;55.848;-3.572;2023-04-21T06:05:41;100318.49;;;9.45;72.55
54554;BME280;40450;55.848;-3.572;2023-04-21T06:08:12;100317.67;;;7.64;75.98
54554;BME280;40450;55.848;-3.572;2023-04-21T06:10:42;100314.47;;;8.06;75.14
54554;BME280;40450;55.848;-3.572;2023-04-21T06:13:12;100312.18;;;8.86;73.49
54554;BME280;40450;55.848;-3.572;2023-04-21T06:15:43;100314.82;;;7.66;76.34
54554;BME280;40450;55.848;-3.572;2023-04-21T06:18:13;100311.35;;;7.19;77.62
54554;BME280;40450;55.848;-3.572;2023-04-21T06:20:49;100304.54;;;8.22;75.92
54554;BME280;40450;55.848;-3.572;2023-04-21T06:23:14;100300.75;;;8.06;75.53
54554;BME280;40450;55.848;-3.572;2023-04-21T06:25:45;100297.96;;;6.83;78.92
54554;BME280;40450;55.848;-3.572;2023-04-21T06:28:15;100300.50;;;4.81;85.62
54554;BME280;40450;55.848;-3.572;2023-04-21T06:30:45;100292.61;;;3.68;88.63
54554;BME280;40450;55.848;-3.572;2023-04-21T06:33:15;100293.49;;;4.90;86.11
54554;BME280;40450;55.848;-3.572;2023-04-21T06:35:46;100293.30;;;4.19;87.62
54554;BME280;40450;55.848;-3.572;2023-04-21T06:38:16;100286.96;;;5.54;84.94
54554;BME280;40450;55.848;-3.572;2023-04-21T06:40:47;100283.96;;;6.31;82.55
54554;BME280;40450;55.848;-3.572;2023-04-21T06:43:18;100288.74;;;5.37;85.04
54554;BME280;40450;55.848;-3.572;2023-04-21T06:45:48;100283.40;;;6.75;83.73
54554;BME280;40450;55.848;-3.572;2023-04-21T06:48:18;100278.96;;;9.10;79.61
54554;BME280;40450;55.848;-3.572;2023-04-21T06:50:49;100275.43;;;9.07;77.27
54554;BME280;40450;55.848;-3.572;2023-04-21T06:53:19;100275.95;;;6.38;81.62
54554;BME280;40450;55.848;-3.572;2023-04-21T06:55:50;100276.43;;;7.09;80.63
54554;BME280;40450;55.848;-3.572;2023-04-21T06:58:20;100272.14;;;6.22;83.50
54554;BME280;40450;55.848;-3.572;2023-04-21T07:00:50;100273.26;;;5.80;85.88
54554;BME280;40450;55.848;-3.572;2023-04-21T07:03:20;100274.91;;;4.59;89.27
54554;BME280;40450;55.848;-3.572;2023-04-21T07:05:50;100271.83;;;4.05;90.84
54554;BME280;40450;55.848;-3.572;2023-04-21T07:08:21;100269.07;;;5.73;87.33
54554;BME280;40450;55.848;-3.572;2023-04-21T07:10:52;100266.13;;;7.85;83.36
54554;BME280;40450;55.848;-3.572;2023-04-21T07:13:22;100262.38;;;8.54;81.87
54554;BME280;40450;55.848;-3.572;2023-04-21T07:15:53;100258.50;;;9.56;79.79
54554;BME280;40450;55.848;-3.572;2023-04-21T07:18:23;100259.10;;;6.29;83.92
54554;BME280;40450;55.848;-3.572;2023-04-21T07:20:53;100263.94;;;3.80;91.52
54554;BME280;40450;55.848;-3.572;2023-04-21T07:23:24;100262.60;;;4.73;89.50
54554;BME280;40450;55.848;-3.572;2023-04-21T07:25:54;100259.38;;;3.03;93.98
54554;BME280;40450;55.848;-3.572;2023-04-21T07:28:24;100261.96;;;3.21;94.98
54554;BME280;40450;55.848;-3.572;2023-04-21T07:30:54;100260.32;;;3.65;92.99
54554;BME280;40450;55.848;-3.572;2023-04-21T07:33:25;100257.12;;;2.78;95.55
54554;BME280;40450;55.848;-3.572;2023-04-21T07:35:55;100255.07;;;2.60;95.37
54554;BME280;40450;55.848;-3.572;2023-04-21T07:38:25;100249.07;;;2.71;94.03
54554;BME280;40450;55.848;-3.572;2023-04-21T07:40:56;100245.50;;;3.62;93.28
54554;BME280;40450;55.848;-3.572;2023-04-21T07:43:26;100244.03;;;2.96;95.03
54554;BME280;40450;55.848;-3.572;2023-04-21T07:45:56;100244.87;;;2.17;96.53
54554;BME280;40450;55.848;-3.572;2023-04-21T07:48:26;100247.04;;;2.16;96.19
54554;BME280;40450;55.848;-3.572;2023-04-21T07:50:56;100242.08;;;1.53;97.45
54554;BME280;40450;55.848;-3.572;2023-04-21T07:53:28;100242.83;;;2.95;95.55
54554;BME280;40450;55.848;-3.572;2023-04-21T07:55:58;100247.60;;;2.11;96.76
54554;BME280;40450;55.848;-3.572;2023-04-21T07:58:28;100244.72;;;1.88;97.54
54554;BME280;40450;55.848;-3.572;2023-04-21T08:00:58;100244.83;;;2.22;97.02
54554;BME280;40450;55.848;-3.572;2023-04-21T08:03:28;100239.60;;;1.83;96.78
54554;BME280;40450;55.848;-3.572;2023-04-21T08:05:59;100232.72;;;2.26;96.41
54554;BME280;40450;55.848;-3.572;2023-04-21T08:08:29;100238.58;;;4.05;93.14
54554;BME280;40450;55.848;-3.572;2023-04-21T08:10:59;100237.19;;;2.07;96.11
54554;BME280;40450;55.848;-3.572;2023-04-21T08:13:30;100234.99;;;1.25;98.40
54554;BME280;40450;55.848;-3.572;2023-04-21T08:16:01;100235.12;;;3.17;94.88
54554;BME280;40450;55.848;-3.572;2023-04-21T08:18:30;100227.92;;;2.56;95.96
54554;BME280;40450;55.848;-3.572;2023-04-21T08:21:01;100224.90;;;2.38;96.71
54554;BME280;40450;55.848;-3.572;2023-04-21T08:23:32;100217.12;;;0.74;98.37
54554;BME280;40450;55.848;-3.572;2023-04-21T08:26:02;100230.07;;;0.89;98.52
54554;BME280;40450;55.848;-3.572;2023-04-21T08:28:32;100225.98;;;1.40;97.73
54554;BME280;40450;55.848;-3.572;2023-04-21T08:31:04;100230.64;;;1.88;97.59
54554;BME280;40450;55.848;-3.572;2023-04-21T08:33:34;100224.66;;;2.96;96.13
54554;BME280;40450;55.848;-3.572;2023-04-21T08:36:05;100224.88;;;1.25;97.97
54554;BME280;40450;55.848;-3.572;2023-04-21T08:38:34;100218.34;;;2.47;96.57
54554;BME280;40450;55.848;-3.572;2023-04-21T08:41:05;100221.46;;;2.63;94.96
54554;BME280;40450;55.848;-3.572;2023-04-21T08:43:34;100218.88;;;3.64;94.44
54554;BME280;40450;55.848;-3.572;2023-04-21T08:46:07;100213.41;;;2.42;95.67
54554;BME280;40450;55.848;-3.572;2023-04-21T08:48:37;100216.68;;;2.46;95.91
54554;BME280;40450;55.848;-3.572;2023-04-21T08:51:08;100214.56;;;2.96;94.97
54554;BME280;40450;55.848;-3.572;2023-04-21T08:53:38;100217.01;;;4.21;92.33
54554;BME280;40450;55.848;-3.572;2023-04-21T08:56:07;100207.83;;;3.44;94.24
54554;BME280;40450;55.848;-3.572;2023-04-21T08:58:38;100199.21;;;3.25;94.01
54554;BME280;40450;55.848;-3.572;2023-04-21T09:01:08;100198.05;;;4.39;93.14
54554;BME280;40450;55.848;-3.572;2023-04-21T09:03:37;100194.29;;;2.84;95.43
54554;BME280;40450;55.848;-3.572;2023-04-21T09:06:09;100198.83;;;4.21;93.81
54554;BME280;40450;55.848;-3.572;2023-04-21T09:08:41;100196.08;;;3.70;94.05
54554;BME280;40450;55.848;-3.572;2023-04-21T09:11:08;100188.53;;;3.35;94.08
54554;BME280;40450;55.848;-3.572;2023-04-21T09:13:38;100187.39;;;4.69;92.54
54554;BME280;40450;55.848;-3.572;2023-04-21T09:16:29;100185.47;;;3.46;93.04
54554;BME280;40450;55.848;-3.572;2023-04-21T09:18:40;100179.14;;;3.70;93.97
54554;BME280;40450;55.848;-3.572;2023-04-21T09:21:11;100176.00;;;2.85;94.89
54554;BME280;40450;55.848;-3.572;2023-04-21T09:23:41;100166.05;;;5.63;89.10
54554;BME280;40450;55.848;-3.572;2023-04-21T09:26:12;100163.11;;;5.36;89.36
54554;BME280;40450;55.848;-3.572;2023-04-21T09:28:41;100157.50;;;6.39;86.31
54554;BME280;40450;55.848;-3.572;2023-04-21T09:31:13;100164.74;;;4.16;91.86
54554;BME280;40450;55.848;-3.572;2023-04-21T09:33:47;100151.85;;;5.14;91.10
54554;BME280;40450;55.848;-3.572;2023-04-21T09:36:17;100153.26;;;5.46;89.42
54554;BME280;40450;55.848;-3.572;2023-04-21T09:38:42;100146.89;;;5.18;90.31
54554;BME280;40450;55.848;-3.572;2023-04-21T09:41:16;100153.50;;;5.21;90.46
54554;BME280;40450;55.848;-3.572;2023-04-21T09:43:43;100154.61;;;2.98;94.98
54554;BME280;40450;55.848;-3.572;2023-04-21T09:46:15;100148.48;;;3.73;93.38
54554;BME280;40450;55.848;-3.572;2023-04-21T09:48:46;100146.91;;;5.52;90.52
54554;BME280;40450;55.848;-3.572;2023-04-21T09:51:17;100143.77;;;4.82;91.50
54554;BME280;40450;55.848;-3.572;2023-04-21T09:53:45;100139.43;;;5.07;91.18
54554;BME280;40450;55.848;-3.572;2023-04-21T09:56:16;100139.73;;;4.20;91.75
54554;BME280;40450;55.848;-3.572;2023-04-21T09:58:46;100133.11;;;5.43;89.23
54554;BME280;40450;55.848;-3.572;2023-04-21T10:01:15;100145.86;;;3.29;94.51
54554;BME280;40450;55.848;-3.572;2023-04-21T10:03:47;100141.20;;;3.50;94.70
54554;BME280;40450;55.848;-3.572;2023-04-21T10:06:16;100148.02;;;2.78;96.42
54554;BME280;40450;55.848;-3.572;2023-04-21T10:08:47;100142.38;;;4.70;93.06
54554;BME280;40450;55.848;-3.572;2023-04-21T10:11:17;100137.64;;;4.73;92.45
54554;BME280;40450;55.848;-3.572;2023-04-21T10:13:47;100144.41;;;2.96;95.75
54554;BME280;40450;55.848;-3.572;2023-04-21T10:16:17;100139.44;;;4.27;94.10
54554;BME280;40450;55.848;-3.572;2023-04-21T10:18:47;100136.42;;;6.50;89.62
54554;BME280;40450;55.848;-3.572;2023-04-21T10:21:18;100130.37;;;6.77;88.52
54554;BME280;40450;55.848;-3.572;2023-04-21T10:23:49;100128.01;;;6.54;88.14
54554;BME280;40450;55.848;-3.572;2023-04-21T10:26:19;100129.13;;;3.53;94.19
54554;BME280;40450;55.848;-3.572;2023-04-21T10:28:53;100129.10;;;3.29;95.57
54554;BME280;40450;55.848;-3.572;2023-04-21T10:31:22;100121.38;;;4.65;93.18
54554;BME280;40450;55.848;-3.572;2023-04-21T10:36:24;100118.62;;;3.18;97.08
54554;BME280;40450;55.848;-3.572;2023-04-21T10:38:54;100110.47;;;3.63;95.16
54554;BME280;40450;55.848;-3.572;2023-04-21T10:41:25;100104.28;;;3.02;96.62
54554;BME280;40450;55.848;-3.572;2023-04-21T10:43:51;100106.48;;;3.87;94.36
54554;BME280;40450;55.848;-3.572;2023-04-21T10:48:52;100108.77;;;3.55;95.64
54554;BME280;40450;55.848;-3.572;2023-04-21T10:51:22;100106.12;;;4.52;93.38
54554;BME280;40450;55.848;-3.572;2023-04-21T10:53:56;100098.81;;;3.77;94.58
54554;BME280;40450;55.848;-3.572;2023-04-21T10:56:25;100093.40;;;4.89;93.02
54554;BME280;40450;55.848;-3.572;2023-04-21T10:58:53;100096.75;;;4.78;92.51
54554;BME280;40450;55.848;-3.572;2023-04-21T11:01:24;100088.53;;;4.77;93.28
54554;BME280;40450;55.848;-3.572;2023-04-21T11:03:54;100091.33;;;6.09;90.77
54554;BME280;40450;55.848;-3.572;2023-04-21T11:06:24;100094.47;;;5.97;90.76
54554;BME280;40450;55.848;-3.572;2023-04-21T11:08:55;100088.34;;;4.98;92.06
54554;BME280;40450;55.848;-3.572;2023-04-21T11:11:26;100089.75;;;5.42;91.32
54554;BME280;40450;55.848;-3.572;2023-04-21T11:13:59;100084.63;;;6.52;90.05
54554;BME280;40450;55.848;-3.572;2023-04-21T11:16:27;100082.97;;;5.46;90.30
54554;BME280;40450;55.848;-3.572;2023-04-21T11:18:57;100076.79;;;5.10;92.11
54554;BME280;40450;55.848;-3.572;2023-04-21T11:21:28;100072.96;;;4.47;92.65
54554;BME280;40450;55.848;-3.572;2023-04-21T11:23:58;100066.73;;;4.57;92.42
54554;BME280;40450;55.848;-3.572;2023-04-21T11:26:31;100063.70;;;5.60;90.28
54554;BME280;40450;55.848;-3.572;2023-04-21T11:29:00;100062.51;;;4.10;93.45
54554;BME280;40450;55.848;-3.572;2023-04-21T11:31:29;100056.46;;;5.42;91.23
54554;BME280;40450;55.848;-3.572;2023-04-21T11:33:59;100048.11;;;4.78;92.95
54554;BME280;40450;55.848;-3.572;2023-04-21T11:36:30;100044.87;;;5.31;92.15
54554;BME280;40450;55.848;-3.572;2023-04-21T11:39:03;100047.52;;;6.04;90.04
54554;BME280;40450;55.848;-3.572;2023-04-21T11:41:29;100043.21;;;5.99;89.30
54554;BME280;40450;55.848;-3.572;2023-04-21T11:44:00;100041.46;;;6.31;88.02
54554;BME280;40450;55.848;-3.572;2023-04-21T11:46:31;100037.54;;;6.01;89.42
54554;BME280;40450;55.848;-3.572;2023-04-21T11:49:03;100034.64;;;5.61;90.12
54554;BME280;40450;55.848;-3.572;2023-04-21T11:51:33;100029.16;;;5.74;89.65
54554;BME280;40450;55.848;-3.572;2023-04-21T11:54:03;100024.94;;;6.90;86.80
54554;BME280;40450;55.848;-3.572;2023-04-21T11:56:34;100029.21;;;6.53;87.97
54554;BME280;40450;55.848;-3.572;2023-04-21T11:59:05;100037.46;;;5.41;91.14
54554;BME280;40450;55.848;-3.572;2023-04-21T12:01:32;100027.19;;;5.92;90.00
54554;BME280;40450;55.848;-3.572;2023-04-21T12:04:03;100017.35;;;4.97;91.86
54554;BME280;40450;55.848;-3.572;2023-04-21T12:06:36;100017.13;;;4.34;93.35
54554;BME280;40450;55.848;-3.572;2023-04-21T12:09:03;100015.37;;;5.25;92.53
54554;BME280;40450;55.848;-3.572;2023-04-21T12:11:34;100013.53;;;5.32;91.64
54554;BME280;40450;55.848;-3.572;2023-04-21T12:14:04;100008.24;;;6.18;90.64
54554;BME280;40450;55.848;-3.572;2023-04-21T12:16:36;100015.57;;;5.44;90.70
54554;BME280;40450;55.848;-3.572;2023-04-21T12:19:06;100017.21;;;5.65;90.77
54554;BME280;40450;55.848;-3.572;2023-04-21T12:21:36;99998.21;;;5.57;91.56
54554;BME280;40450;55.848;-3.572;2023-04-21T12:24:08;100003.56;;;5.00;92.78
54554;BME280;40450;55.848;-3.572;2023-04-21T12:29:07;99998.22;;;5.16;91.79
54554;BME280;40450;55.848;-3.572;2023-04-21T12:31:37;99994.30;;;5.30;90.24
54554;BME280;40450;55.848;-3.572;2023-04-21T12:34:09;99982.04;;;6.30;88.75
54554;BME280;40450;55.848;-3.572;2023-04-21T12:36:37;99983.28;;;5.42;90.39
54554;BME280;40450;55.848;-3.572;2023-04-21T12:39:08;99973.29;;;4.95;91.34
54554;BME280;40450;55.848;-3.572;2023-04-21T12:41:39;99981.06;;;6.05;89.27
54554;BME280;40450;55.848;-3.572;2023-04-21T12:44:09;99966.71;;;5.27;90.69
54554;BME280;40450;55.848;-3.572;2023-04-21T12:46:39;99979.42;;;4.79;91.55
54554;BME280;40450;55.848;-3.572;2023-04-21T12:49:10;99971.49;;;4.95;91.40
54554;BME280;40450;55.848;-3.572;2023-04-21T12:51:42;99964.41;;;5.60;89.42
54554;BME280;40450;55.848;-3.572;2023-04-21T12:54:11;99965.84;;;6.69;87.73
54554;BME280;40450;55.848;-3.572;2023-04-21T12:56:41;99958.60;;;5.83;89.13
54554;BME280;40450;55.848;-3.572;2023-04-21T12:59:11;99949.72;;;5.83;89.00
54554;BME280;40450;55.848;-3.572;2023-04-21T13:01:42;99955.97;;;5.40;90.51
54554;BME280;40450;55.848;-3.572;2023-04-21T13:04:12;99959.04;;;5.24;90.72
54554;BME280;40450;55.848;-3.572;2023-04-21T13:06:43;99950.99;;;5.73;89.65
54554;BME280;40450;55.848;-3.572;2023-04-21T13:09:15;99943.16;;;6.59;86.98
54554;BME280;40450;55.848;-3.572;2023-04-21T13:11:43;99947.80;;;5.37;90.42
54554;BME280;40450;55.848;-3.572;2023-04-21T13:14:13;99939.70;;;5.62;89.00
54554;BME280;40450;55.848;-3.572;2023-04-21T13:16:44;99935.69;;;6.07;88.66
54554;BME280;40450;55.848;-3.572;2023-04-21T13:19:14;99928.06;;;5.88;88.10
54554;BME280;40450;55.848;-3.572;2023-04-21T13:21:45;99936.71;;;6.82;86.88